Time;durP1;ratioP1;P1;durP2;ratioP2;P2;SDS_P1;SDS_P2;PMS_P1;PMS_P2;Temp;Humidity;BMP_temperature;BMP_pressure;BME280_temperature;BME280_humidity;BME280_pressure;Samples;Min_cycle;Max_cycle;Signal;HPM_P1;HPM_P2
2022/05/02 00:00:53;;;;;;;1.58;1.30;;;;;;;18.43;45.22;102177.22;5043301;28;20061;-47
2022/05/02 00:03:18;;;;;;;1.40;1.30;;;;;;;18.46;45.03;102176.13;5043408;28;20048;-48
2022/05/02 00:05:43;;;;;;;1.67;1.50;;;;;;;18.46;44.96;102173.41;5043777;28;20040;-49
2022/05/02 00:08:09;;;;;;;1.38;1.20;;;;;;;18.46;45.15;102184.19;5043175;28;20026;-47
2022/05/02 00:10:34;;;;;;;1.50;1.40;;;;;;;18.45;45.03;102180.66;5043607;28;20029;-46
2022/05/02 00:13:01;;;;;;;1.40;1.27;;;;;;;18.43;45.06;102177.22;5041900;28;20083;-46
2022/05/02 00:15:26;;;;;;;1.65;1.38;;;;;;;18.43;44.92;102174.53;5058386;28;20091;-49
2022/05/02 00:17:58;;;;;;;1.33;1.23;;;;;;;18.43;45.10;102174.53;5052557;28;20037;-48
2022/05/02 00:20:24;;;;;;;1.33;1.23;;;;;;;18.43;44.92;102173.69;5043563;28;20455;-48
2022/05/02 00:22:49;;;;;;;1.73;1.40;;;;;;;18.42;44.77;102163.91;5042898;28;20025;-47
2022/05/02 00:25:15;;;;;;;1.77;1.48;;;;;;;18.42;44.77;102161.22;5043413;28;20101;-47
2022/05/02 00:27:41;;;;;;;1.35;1.25;;;;;;;18.41;44.89;102171.13;5043238;28;20381;-46
2022/05/02 00:30:08;;;;;;;1.63;1.30;;;;;;;18.41;44.84;102171.13;5042752;28;20059;-47
2022/05/02 00:32:33;;;;;;;1.40;1.23;;;;;;;18.39;44.83;102156.97;5043143;28;20034;-48
2022/05/02 00:34:59;;;;;;;2.70;1.70;;;;;;;18.40;44.81;102161.34;5043328;28;20041;-45
2022/05/02 00:37:24;;;;;;;1.33;1.17;;;;;;;18.39;44.89;102154.28;5043130;28;20065;-46
2022/05/02 00:39:49;;;;;;;1.88;1.58;;;;;;;18.40;44.95;102155.97;5043099;28;20021;-46
2022/05/02 00:42:14;;;;;;;1.42;1.30;;;;;;;18.36;44.87;102143.78;5043145;28;20060;-47
2022/05/02 00:44:44;;;;;;;1.70;1.42;;;;;;;18.35;44.84;102142.06;5042698;28;20040;-48
2022/05/02 00:47:09;;;;;;;;;;;;;;;18.34;44.98;102151.09;5043132;28;20048;-46
2022/05/02 00:49:37;;;;;;;2.47;1.65;;;;;;;18.31;44.78;102140.63;5042857;28;19913;-50
2022/05/02 00:52:02;;;;;;;1.92;1.60;;;;;;;18.35;44.61;102144.75;5043066;28;20032;-46
2022/05/02 00:54:28;;;;;;;2.25;1.80;;;;;;;18.33;44.54;102141.34;5025076;28;20128;-48
2022/05/02 00:56:53;;;;;;;1.65;1.50;;;;;;;18.35;44.40;102147.47;5043084;28;20025;-50
2022/05/02 00:59:19;;;;;;;1.80;1.40;;;;;;;18.35;44.61;102144.75;5042225;28;20129;-47
2022/05/02 01:01:45;;;;;;;1.30;1.20;;;;;;;18.35;44.69;102142.06;5041702;28;20029;-47
2022/05/02 01:04:10;;;;;;;1.90;1.70;;;;;;;18.34;44.43;102143.03;5042631;28;20119;-48
2022/05/02 01:09:19;;;;;;;1.73;1.60;;;;;;;18.34;44.43;102139.50;5043428;28;20481;-46
2022/05/02 01:11:44;;;;;;;1.30;1.20;;;;;;;18.33;44.67;102133.25;5046544;28;20021;-47
2022/05/02 01:14:09;;;;;;;1.55;1.38;;;;;;;18.33;44.47;102140.47;5050491;28;20133;-47
2022/05/02 01:16:35;;;;;;;1.50;1.35;;;;;;;18.34;44.66;102139.50;5066468;28;20483;-47
2022/05/02 01:19:00;;;;;;;1.80;1.60;;;;;;;18.32;44.72;102139.63;5046690;28;20040;-46
2022/05/02 01:21:29;;;;;;;1.40;1.30;;;;;;;18.32;44.40;102145.03;5046555;28;20025;-48
2022/05/02 01:24:04;;;;;;;1.20;1.10;;;;;;;18.32;44.33;102141.47;5046346;28;20079;-45
2022/05/02 01:26:30;;;;;;;1.40;1.30;;;;;;;18.29;44.41;102136.34;5045999;28;20025;-47
2022/05/02 01:28:57;;;;;;;1.42;1.27;;;;;;;18.32;44.45;102138.78;5045088;28;20059;-47
2022/05/02 01:31:23;;;;;;;2.15;1.52;;;;;;;18.31;44.22;102139.75;5046129;28;20040;-48
2022/05/02 01:33:49;;;;;;;1.60;1.40;;;;;;;18.31;44.38;102131.66;5045690;28;20034;-49
2022/05/02 01:36:17;;;;;;;1.42;1.33;;;;;;;18.28;44.35;102126.59;5046133;28;20060;-46
2022/05/02 01:38:42;;;;;;;1.40;1.30;;;;;;;18.31;44.00;102131.66;5045501;28;20055;-51
2022/05/02 01:41:08;;;;;;;1.50;1.40;;;;;;;18.30;44.40;102132.66;5046101;28;20036;-51
2022/05/02 01:43:34;;;;;;;1.30;1.20;;;;;;;18.28;44.27;102132.81;5045403;28;20025;-51
2022/05/02 01:46:01;;;;;;;1.98;1.50;;;;;;;18.29;44.41;102131.81;5046155;28;20044;-51
2022/05/02 01:48:27;;;;;;;1.50;1.30;;;;;;;18.29;44.22;102133.66;5045418;28;20044;-49
2022/05/02 01:50:52;;;;;;;1.40;1.27;;;;;;;18.28;44.14;102126.59;5045741;28;20038;-48
2022/05/02 01:53:17;;;;;;;1.60;1.50;;;;;;;18.28;44.10;102129.28;5045560;28;20052;-54
2022/05/02 01:55:43;;;;;;;1.20;1.10;;;;;;;18.27;44.21;102127.56;5045854;28;20029;-48
2022/05/02 01:58:08;;;;;;;1.55;1.40;;;;;;;18.26;44.43;102132.09;5045117;28;20034;-46
2022/05/02 02:00:33;;;;;;;1.30;1.20;;;;;;;18.23;44.31;102119.75;5045732;28;20112;-46
2022/05/02 02:02:59;;;;;;;1.58;1.30;;;;;;;18.24;44.32;102124.16;5044907;28;20059;-47
2022/05/02 02:08:08;;;;;;;2.22;1.52;;;;;;;18.24;44.24;102123.31;5045015;28;20406;-48
2022/05/02 02:10:34;;;;;;;1.35;1.25;;;;;;;18.22;44.23;102115.38;5045806;28;20025;-47
2022/05/02 02:12:59;;;;;;;1.13;1.02;;;;;;;18.23;44.17;102121.59;5045146;28;20510;-45
2022/05/02 02:15:24;;;;;;;1.42;1.10;;;;;;;18.22;44.04;102118.06;5044992;28;20025;-50
2022/05/02 02:17:49;;;;;;;1.30;1.20;;;;;;;18.21;44.15;102115.50;5044655;28;20056;-49
2022/05/02 02:20:15;;;;;;;1.35;1.23;;;;;;;18.21;44.33;102119.03;5044823;28;20033;-49
2022/05/02 02:22:40;;;;;;;1.40;1.30;;;;;;;18.20;43.87;102127.25;5045464;28;20429;-50
2022/05/02 02:25:06;;;;;;;1.23;1.13;;;;;;;18.19;43.87;102121.03;5045443;28;20746;-46
2022/05/02 02:27:32;;;;;;;1.35;1.05;;;;;;;18.20;43.92;102122.72;5043888;28;20038;-46
2022/05/02 02:29:58;;;;;;;1.60;1.50;;;;;;;18.19;44.09;102115.63;5059801;28;20028;-46
2022/05/02 02:32:23;;;;;;;1.25;1.15;;;;;;;18.18;43.81;102110.38;5044919;28;20546;-47
2022/05/02 02:34:48;;;;;;;1.20;1.10;;;;;;;18.15;43.81;102110.66;5043500;28;20101;-47
2022/05/02 02:37:15;;;;;;;1.50;1.40;;;;;;;18.18;44.02;102115.75;5043868;28;20064;-46
2022/05/02 02:39:40;;;;;;;1.55;1.10;;;;;;;18.16;44.06;102113.19;5044418;28;20022;-46
2022/05/02 02:42:06;;;;;;;1.63;1.52;;;;;;;18.16;43.81;102106.97;5044882;28;20083;-47
2022/05/02 02:44:31;;;;;;;1.30;1.20;;;;;;;18.16;44.17;102106.97;5044452;28;20021;-46
2022/05/02 02:46:57;;;;;;;1.30;1.20;;;;;;;18.15;44.04;102108.81;5044181;28;20041;-49
2022/05/02 02:49:22;;;;;;;1.50;1.40;;;;;;;18.15;43.67;102099.88;5044571;28;20036;-47
2022/05/02 02:51:47;;;;;;;1.15;1.05;;;;;;;18.13;43.67;102094.63;5044809;28;20030;-47
2022/05/02 02:54:12;;;;;;;1.88;1.35;;;;;;;18.11;43.94;102099.31;5044494;28;20021;-46
2022/05/02 02:56:38;;;;;;;1.55;1.40;;;;;;;18.08;43.67;102091.50;5044659;28;20060;-48
2022/05/02 02:59:03;;;;;;;1.77;1.67;;;;;;;18.08;43.93;102085.25;5043702;28;20082;-45
2022/05/02 03:01:28;;;;;;;1.15;1.05;;;;;;;18.10;43.65;102092.22;5044582;28;20068;-45
2022/05/02 03:03:53;;;;;;;1.20;1.10;;;;;;;18.11;43.87;102091.22;5042877;28;20033;-46
2022/05/02 03:06:19;;;;;;;1.40;1.30;;;;;;;18.11;43.86;102091.22;5044661;28;20048;-48
2022/05/02 03:08:44;;;;;;;1.60;1.40;;;;;;;18.10;43.59;102088.69;5044141;28;20018;-46
2022/05/02 03:11:10;;;;;;;1.48;1.38;;;;;;;18.10;43.40;102091.38;5044579;28;20021;-48
2022/05/02 03:13:35;;;;;;;1.38;1.27;;;;;;;18.08;43.46;102091.50;5043767;28;20107;-45
2022/05/02 03:16:01;;;;;;;1.02;1.00;;;;;;;18.04;43.58;102078.44;5044340;28;20025;-45
2022/05/02 03:18:26;;;;;;;1.40;1.30;;;;;;;18.05;43.65;102077.44;5043488;28;20083;-46
2022/05/02 03:20:52;;;;;;;1.30;1.20;;;;;;;18.07;43.68;102084.41;5044016;28;20024;-50
2022/05/02 03:23:18;;;;;;;1.10;1.00;;;;;;;18.06;43.72;102080.03;5043880;28;20085;-48
2022/05/02 03:25:43;;;;;;;1.60;1.50;;;;;;;18.06;43.63;102085.41;5044284;28;20081;-47
2022/05/02 03:28:08;;;;;;;1.60;1.23;;;;;;;18.05;43.69;102077.44;5043624;28;20053;-45
2022/05/02 03:30:33;;;;;;;1.40;1.30;;;;;;;18.04;43.71;102079.28;5044078;28;20037;-47
2022/05/02 03:32:59;;;;;;;1.38;1.25;;;;;;;18.04;43.32;102081.13;5042574;28;20108;-49
2022/05/02 03:35:25;;;;;;;1.33;1.23;;;;;;;18.04;43.49;102078.44;5043924;28;20017;-48
2022/05/02 03:37:51;;;;;;;1.40;1.30;;;;;;;18.01;43.40;102079.56;5043877;28;20025;-48
2022/05/02 03:40:16;;;;;;;1.30;1.20;;;;;;;18.03;43.45;102076.75;5043760;28;20033;-47
2022/05/02 03:42:41;;;;;;;1.30;1.20;;;;;;;18.03;43.53;102082.13;5043807;28;20175;-49
2022/05/02 03:45:07;;;;;;;1.20;1.10;;;;;;;18.02;43.34;102083.13;5043220;28;20117;-48
2022/05/02 03:47:32;;;;;;;1.70;1.48;;;;;;;18.00;43.46;102085.91;5043493;28;20492;-46
2022/05/02 03:49:57;;;;;;;1.45;1.35;;;;;;;17.97;43.39;102084.38;5043425;28;20030;-46
2022/05/02 03:52:23;;;;;;;1.17;1.08;;;;;;;18.01;43.26;102084.06;5043760;28;20083;-47
2022/05/02 03:54:48;;;;;;;1.33;1.20;;;;;;;17.99;43.37;102078.84;5043572;28;20116;-46
2022/05/02 03:57:13;;;;;;;1.45;1.35;;;;;;;17.98;43.28;102080.69;5043666;28;20033;-47
2022/05/02 03:59:38;;;;;;;1.00;1.00;;;;;;;17.97;43.43;102080.81;5042829;28;20120;-47
2022/05/02 04:02:04;;;;;;;1.42;1.33;;;;;;;17.97;43.42;102087.06;5043447;28;20060;-48
2022/05/02 04:04:29;;;;;;;1.30;1.20;;;;;;;17.97;43.40;102092.44;5043081;28;20030;-48
2022/05/02 04:06:54;;;;;;;1.30;1.20;;;;;;;17.96;43.19;102079.94;5043623;28;20037;-47
2022/05/02 04:09:20;;;;;;;1.27;1.17;;;;;;;17.97;43.22;102086.22;5043027;28;20022;-47
2022/05/02 04:11:45;;;;;;;1.20;1.10;;;;;;;17.95;43.25;102080.94;5043579;28;20037;-44
2022/05/02 04:14:10;;;;;;;1.27;1.17;;;;;;;17.95;43.43;102080.94;5042908;28;20021;-48
2022/05/02 04:16:35;;;;;;;1.30;1.20;;;;;;;17.94;43.40;102081.94;5043501;28;20140;-44
2022/05/02 04:19:01;;;;;;;1.30;1.20;;;;;;;17.93;43.25;102074.84;5042854;28;20033;-48
2022/05/02 04:21:26;;;;;;;1.38;1.27;;;;;;;17.93;43.03;102082.94;5040345;28;20037;-47
2022/05/02 04:23:51;;;;;;;1.20;1.10;;;;;;;17.93;43.31;102085.63;5038558;28;20021;-51
2022/05/02 04:26:16;;;;;;;1.20;1.10;;;;;;;17.91;43.05;102073.28;5039281;28;20040;-46
2022/05/02 04:28:41;;;;;;;1.38;1.27;;;;;;;17.92;43.26;102086.59;5041942;28;20021;-48
2022/05/02 04:31:07;;;;;;;1.40;1.30;;;;;;;17.91;42.96;102082.19;5040353;28;20052;-45
2022/05/02 04:33:32;;;;;;;1.20;1.10;;;;;;;17.91;43.29;102081.34;5042417;28;20074;-47
2022/05/02 04:35:57;;;;;;;1.35;1.23;;;;;;;17.90;42.79;102085.88;5043209;28;20056;-45
2022/05/02 04:38:23;;;;;;;1.30;1.20;;;;;;;17.90;42.97;102082.34;5042454;28;20030;-45
2022/05/02 04:40:48;;;;;;;1.13;1.00;;;;;;;17.89;43.17;102080.66;5043293;28;20033;-48
2022/05/02 04:43:14;;;;;;;1.38;1.27;;;;;;;17.88;43.04;102082.47;5036425;28;20021;-45
2022/05/02 04:45:39;;;;;;;1.20;1.10;;;;;;;17.90;43.31;102085.03;5044229;28;20041;-49
2022/05/02 04:48:05;;;;;;;1.40;1.30;;;;;;;17.88;43.12;102085.19;5040748;28;20024;-48
2022/05/02 04:50:30;;;;;;;1.30;1.20;;;;;;;17.89;43.31;102080.66;5039936;28;20038;-50
2022/05/02 04:52:56;;;;;;;1.42;1.20;;;;;;;17.89;43.36;102080.66;5046441;28;20021;-50
2022/05/02 04:55:21;;;;;;;1.40;1.30;;;;;;;17.87;43.31;102083.44;5041245;28;20033;-48
2022/05/02 04:57:46;;;;;;;1.50;1.40;;;;;;;17.87;43.24;102083.44;5042106;28;20084;-45
2022/05/02 05:00:14;;;;;;;1.33;1.23;;;;;;;17.88;43.18;102086.97;5043243;28;20037;-46
2022/05/02 05:02:39;;;;;;;1.33;1.23;;;;;;;17.88;43.53;102089.66;5038235;28;20030;-44
2022/05/02 05:05:06;;;;;;;1.30;1.20;;;;;;;17.87;43.28;102085.28;5041087;28;20105;-47
2022/05/02 05:07:32;;;;;;;1.33;1.23;;;;;;;17.85;43.41;102085.44;5065229;28;20094;-49
2022/05/02 05:09:57;;;;;;;1.30;1.20;;;;;;;17.85;43.49;102090.81;5037632;28;20026;-46
2022/05/02 05:12:34;;;;;;;1.40;1.30;;;;;;;17.87;43.26;102088.81;5045943;28;20413;-44
2022/05/02 05:18:29;;;;;;;1.30;1.20;;;;;;;17.86;43.58;102081.75;5042880;28;20041;-46
2022/05/02 05:20:58;;;;;;;1.35;1.27;;;;;;;17.85;43.58;102081.88;5045339;28;20021;-47
2022/05/02 05:23:52;;;;;;;1.30;1.20;;;;;;;17.86;43.35;102087.13;5037892;28;20029;-46
2022/05/02 05:26:33;;;;;;;1.40;1.30;;;;;;;17.85;43.69;102088.13;5041766;28;20036;-48
2022/05/02 05:29:14;;;;;;;1.33;1.23;;;;;;;17.86;43.39;102089.81;5038362;28;20013;-47
2022/05/02 05:31:39;;;;;;;1.20;1.10;;;;;;;17.84;43.56;102091.81;5042988;28;20018;-48
2022/05/02 05:34:17;;;;;;;1.27;1.17;;;;;;;17.85;43.80;102085.44;5045272;28;20108;-48
2022/05/02 05:36:53;;;;;;;1.30;1.20;;;;;;;17.85;43.61;102088.13;5041937;28;20068;-45
2022/05/02 05:40:00;;;;;;;1.40;1.30;;;;;;;17.84;43.80;102091.81;5041079;28;20025;-45
2022/05/02 05:42:55;;;;;;;1.20;1.10;;;;;;;17.85;43.58;102088.13;5031623;28;20049;-46
2022/05/02 05:45:33;;;;;;;1.40;1.30;;;;;;;17.83;43.87;102087.38;5057162;28;20028;-48
2022/05/02 05:48:10;;;;;;;1.63;1.50;;;;;;;17.83;43.87;102090.06;5041698;28;20041;-44
2022/05/02 05:50:42;;;;;;;1.30;1.20;;;;;;;17.84;43.71;102093.63;5039603;28;20141;-48
2022/05/02 05:53:17;;;;;;;1.55;1.42;;;;;;;17.84;43.71;102094.50;5036878;28;20017;-46
2022/05/02 05:56:05;;;;;;;1.33;1.23;;;;;;;17.85;43.86;102098.03;5056132;28;20037;-47
2022/05/02 05:58:46;;;;;;;1.27;1.17;;;;;;;17.86;43.84;102102.41;5039924;28;20049;-46
2022/05/02 06:01:14;;;;;;;1.40;1.30;;;;;;;17.85;43.94;102093.50;5041477;28;20089;-47
2022/05/02 06:04:07;;;;;;;1.20;1.20;;;;;;;17.88;43.91;102092.38;5044618;28;20021;-44
2022/05/02 06:06:34;;;;;;;1.33;1.23;;;;;;;17.87;44.09;102096.03;5027549;28;20493;-48
2022/05/02 06:09:00;;;;;;;1.58;1.40;;;;;;;17.88;43.94;102095.06;5041723;28;20438;-50
2022/05/02 06:11:29;;;;;;;1.27;1.17;;;;;;;17.88;43.93;102095.94;5042327;28;20048;-45
2022/05/02 06:13:55;;;;;;;;;;;;;;;17.85;43.92;102090.81;5039109;28;20025;-47
2022/05/02 06:19:16;;;;;;;1.27;1.17;;;;;;;17.88;43.92;102095.06;5043268;28;20081;-45
2022/05/02 06:21:43;;;;;;;1.20;1.10;;;;;;;17.90;44.10;102102.03;5039451;28;20040;-49
2022/05/02 06:24:13;;;;;;;1.50;1.40;;;;;;;17.91;43.88;102094.78;5039383;28;20034;-46
2022/05/02 06:26:40;;;;;;;1.42;1.33;;;;;;;17.91;44.29;102098.34;5040034;28;20033;-48
2022/05/02 06:29:09;;;;;;;1.30;1.20;;;;;;;17.93;43.92;102093.69;5034255;28;20017;-49
2022/05/02 06:31:40;;;;;;;;;;;;;;;17.91;44.21;102102.88;5035452;28;20040;-48
2022/05/02 06:34:06;;;;;;;1.50;1.40;;;;;;;17.92;44.27;102093.81;5066742;28;19909;-46
2022/05/02 06:36:46;;;;;;;1.40;1.30;;;;;;;17.94;44.10;102100.78;5024272;28;20049;-45
2022/05/02 06:39:29;;;;;;;1.23;1.15;;;;;;;17.96;44.12;102103.31;5044423;28;20041;-48
2022/05/02 06:42:21;;;;;;;1.40;1.30;;;;;;;17.98;44.16;102096.81;5044764;28;20033;-47
2022/05/02 06:44:59;;;;;;;1.63;1.52;;;;;;;17.97;44.04;102096.97;5005787;28;20067;-47
2022/05/02 06:47:34;;;;;;;1.33;1.23;;;;;;;18.01;44.11;102105.59;5044923;28;20029;-46
2022/05/02 06:50:03;;;;;;;1.40;1.20;;;;;;;18.03;44.16;102100.97;5044458;28;20033;-46
2022/05/02 06:52:33;;;;;;;1.30;1.20;;;;;;;18.04;44.08;102094.59;5043430;28;20090;-47
2022/05/02 06:55:15;;;;;;;1.13;1.00;;;;;;;18.05;44.01;102086.38;5044536;28;20025;-46
2022/05/02 06:57:58;;;;;;;1.55;1.10;;;;;;;18.09;43.86;102095.03;5044541;28;20041;-46
2022/05/02 07:00:24;;;;;;;1.45;1.05;;;;;;;18.08;43.85;102083.41;5043663;28;20190;-49
2022/05/02 07:03:06;;;;;;;1.40;1.30;;;;;;;18.12;44.03;102084.00;5041483;28;20112;-50
2022/05/02 07:05:31;;;;;;;1.60;1.25;;;;;;;18.11;43.96;102085.84;5043446;28;20029;-48
2022/05/02 07:08:05;;;;;;;1.23;1.13;;;;;;;18.12;43.89;102079.47;5043829;28;20386;-47
2022/05/02 07:10:35;;;;;;;1.88;1.42;;;;;;;18.12;43.96;102084.84;5044488;28;20402;-46
2022/05/02 07:13:00;;;;;;;1.23;1.13;;;;;;;18.13;43.89;102080.31;5043954;28;20504;-46
2022/05/02 07:15:45;;;;;;;1.30;1.20;;;;;;;18.13;43.84;102078.47;5059165;28;20032;-51
2022/05/02 07:18:48;;;;;;;1.27;1.17;;;;;;;18.14;44.01;102087.44;5063726;28;20028;-49
2022/05/02 07:21:30;;;;;;;1.23;1.10;;;;;;;18.13;44.06;102088.38;5054902;28;20022;-46
2022/05/02 07:24:24;;;;;;;1.20;1.10;;;;;;;18.07;44.10;102070.94;5043851;28;20030;-51
2022/05/02 07:27:10;;;;;;;1.33;1.20;;;;;;;18.12;44.09;102082.16;5042226;28;20048;-51
2022/05/02 07:29:37;;;;;;;2.03;1.25;;;;;;;18.12;43.93;102082.16;5043214;28;20034;-52
2022/05/02 07:32:04;;;;;;;0.80;0.80;;;;;;;18.13;43.97;102083.84;5043845;28;20029;-52
2022/05/02 07:34:29;;;;;;;1.23;1.10;;;;;;;18.09;44.05;102077.03;5042278;28;20025;-51
2022/05/02 07:36:55;;;;;;;2.30;1.30;;;;;;;18.14;43.96;102082.88;5043827;28;20053;-48
2022/05/02 07:39:22;;;;;;;1.02;0.98;;;;;;;18.14;43.78;102088.28;5042054;28;20038;-51
2022/05/02 07:41:49;;;;;;;1.08;1.08;;;;;;;18.15;43.81;102089.97;5042848;28;20056;-50
2022/05/02 07:44:17;;;;;;;1.30;1.20;;;;;;;18.16;43.87;102093.50;5043272;28;20098;-52
2022/05/02 07:46:45;;;;;;;1.15;1.05;;;;;;;18.15;43.85;102089.13;5043349;28;20289;-51
2022/05/02 07:49:14;;;;;;;1.20;1.10;;;;;;;18.14;44.01;102085.59;5053924;28;20649;-50
2022/05/02 07:51:47;;;;;;;1.35;1.25;;;;;;;18.15;44.09;102089.13;5023867;28;20033;-50
2022/05/02 07:54:17;;;;;;;1.00;1.00;;;;;;;18.15;43.90;102089.13;5023712;28;20037;-52
2022/05/02 07:56:46;;;;;;;1.40;1.27;;;;;;;18.15;43.96;102094.50;5022718;28;20053;-50
2022/05/02 07:59:14;;;;;;;1.60;1.30;;;;;;;18.14;43.85;102090.13;5022927;28;20030;-50
2022/05/02 08:01:40;;;;;;;1.15;1.05;;;;;;;18.10;43.97;102092.22;5023751;28;20058;-48
2022/05/02 08:04:05;;;;;;;1.33;1.23;;;;;;;18.12;44.05;102092.91;5023131;28;20045;-47
2022/05/02 08:06:45;;;;;;;1.20;1.10;;;;;;;18.14;43.91;102095.50;5023999;28;20435;-46
2022/05/02 08:09:16;;;;;;;1.15;1.05;;;;;;;18.12;44.04;102092.91;5035724;28;20037;-47
2022/05/02 08:11:53;;;;;;;1.05;0.95;;;;;;;18.14;43.96;102098.19;5041374;28;20064;-48
2022/05/02 08:14:25;;;;;;;1.98;1.40;;;;;;;18.13;44.06;102091.94;5039065;28;20056;-46
2022/05/02 08:17:03;;;;;;;1.35;1.25;;;;;;;18.14;43.78;102090.97;5035285;28;20017;-46
2022/05/02 08:19:58;;;;;;;1.10;1.00;;;;;;;18.16;43.78;102093.50;5025315;28;20054;-47
2022/05/02 08:28:14;;;;;;;1.25;1.15;;;;;;;18.16;44.22;102088.13;5027091;28;20040;-48
2022/05/02 08:30:58;;;;;;;1.20;1.10;;;;;;;18.18;44.18;102092.41;5026306;28;20503;-47
2022/05/02 08:33:25;;;;;;;1.52;1.20;;;;;;;18.17;44.27;102089.81;5028079;28;20045;-45
2022/05/02 08:35:55;;;;;;;1.35;0.93;;;;;;;18.20;43.92;102090.41;5043829;28;20075;-45
2022/05/02 08:38:23;;;;;;;;;;;;;;;18.18;44.13;102088.84;5031228;28;20033;-49
2022/05/02 08:41:26;;;;;;;1.63;1.35;;;;;;;18.19;44.25;102086.03;5027185;28;19916;-48
2022/05/02 08:44:32;;;;;;;1.30;1.20;;;;;;;18.20;44.13;102082.34;5026001;28;20582;-48
2022/05/02 08:47:19;;;;;;;2.40;1.30;;;;;;;18.21;44.17;102078.66;5045232;28;20030;-47
2022/05/02 08:50:06;;;;;;;2.08;1.20;;;;;;;18.21;44.40;102084.03;5046632;28;20104;-48
2022/05/02 08:53:03;;;;;;;1.27;1.17;;;;;;;18.23;44.26;102076.69;5046844;28;20033;-48
2022/05/02 08:55:57;;;;;;;1.10;1.00;;;;;;;18.24;44.04;102075.69;5045578;28;20160;-46
2022/05/02 08:58:37;;;;;;;1.20;1.10;;;;;;;18.26;44.48;102066.63;5045976;28;20029;-53
2022/05/02 09:01:27;;;;;;;1.48;1.10;;;;;;;18.27;44.11;102060.28;5046722;28;20025;-52
2022/05/02 09:04:30;;;;;;;1.40;1.30;;;;;;;18.27;44.02;102065.66;5045220;28;20025;-49
2022/05/02 09:07:37;;;;;;;2.25;1.10;;;;;;;18.28;44.20;102064.66;5046913;28;20115;-54
2022/05/02 09:10:23;;;;;;;1.20;1.10;;;;;;;18.26;44.23;102067.47;5045947;28;20017;-53
2022/05/02 09:13:16;;;;;;;1.17;1.08;;;;;;;18.29;44.16;102067.22;5046395;28;20112;-50
2022/05/02 09:15:50;;;;;;;1.20;1.10;;;;;;;18.29;44.25;102066.34;5046336;28;20454;-52
2022/05/02 09:18:43;;;;;;;1.13;1.02;;;;;;;18.30;44.29;102062.66;5026246;28;20038;-49
2022/05/02 09:21:24;;;;;;;1.50;1.40;;;;;;;18.31;44.06;102062.56;5033860;28;20018;-46
2022/05/02 09:24:04;;;;;;;1.13;1.02;;;;;;;18.32;44.09;102063.41;5046404;28;20029;-49
2022/05/02 09:26:42;;;;;;;1.33;1.23;;;;;;;18.33;44.26;102065.94;5045221;28;20029;-48
2022/05/02 09:29:16;;;;;;;1.00;1.00;;;;;;;18.33;44.26;102060.56;5045399;28;20025;-48
2022/05/02 09:31:57;;;;;;;1.92;1.10;;;;;;;18.35;44.29;102066.69;5046276;28;20027;-46
2022/05/02 09:34:54;;;;;;;0.90;0.90;;;;;;;18.35;44.20;102055.91;5044596;28;20036;-47
2022/05/02 09:37:37;;;;;;;1.25;1.15;;;;;;;18.37;43.99;102058.44;5044969;28;20543;-46
2022/05/02 09:40:10;;;;;;;0.90;0.90;;;;;;;18.37;44.27;102058.44;5045781;28;20030;-47
2022/05/02 09:42:57;;;;;;;0.90;0.90;;;;;;;18.38;44.21;102054.75;5045971;28;20088;-48
2022/05/02 09:51:51;;;;;;;1.20;1.10;;;;;;;18.38;44.07;102052.91;5025212;28;20512;-47
2022/05/02 09:57:35;;;;;;;1.15;0.85;;;;;;;18.40;44.21;102044.72;5025776;28;20100;-48
2022/05/02 10:02:50;;;;;;;1.20;1.10;;;;;;;18.41;44.32;102043.72;5025564;28;20065;-50
2022/05/02 10:05:26;;;;;;;0.90;0.90;;;;;;;18.40;44.27;102044.72;5025495;28;20034;-48
2022/05/02 10:08:01;;;;;;;1.20;1.10;;;;;;;18.42;44.16;102038.19;5032078;28;20034;-49
2022/05/02 10:10:53;;;;;;;1.65;1.23;;;;;;;18.45;44.29;102046.00;5045778;28;20026;-46
2022/05/02 10:13:33;;;;;;;1.05;0.95;;;;;;;18.46;44.24;102044.16;5043563;28;20033;-47
2022/05/02 10:16:36;;;;;;;1.20;1.10;;;;;;;18.45;44.13;102035.22;5043979;28;20021;-51
2022/05/02 10:19:14;;;;;;;1.33;1.13;;;;;;;18.46;44.07;102039.63;5044703;28;20030;-47
2022/05/02 10:22:04;;;;;;;1.20;1.10;;;;;;;18.47;44.35;102038.63;5044241;28;20029;-48
2022/05/02 10:25:01;;;;;;;0.90;0.90;;;;;;;18.47;44.44;102033.25;5025185;28;20045;-47
2022/05/02 10:27:29;;;;;;;1.55;1.25;;;;;;;18.47;44.42;102040.47;5044145;28;20044;-46
2022/05/02 10:30:12;;;;;;;1.10;1.00;;;;;;;18.46;44.29;102019.91;5044616;28;20063;-47
2022/05/02 10:32:44;;;;;;;1.10;1.00;;;;;;;18.51;44.16;102032.97;5044875;28;20274;-48
2022/05/02 10:35:15;;;;;;;0.80;0.80;;;;;;;18.52;44.14;102026.59;5043436;28;20056;-47
2022/05/02 10:37:42;;;;;;;1.58;1.10;;;;;;;18.53;44.34;102025.63;5044431;28;20069;-49
2022/05/02 10:40:10;;;;;;;1.20;1.10;;;;;;;18.54;44.27;102020.09;5044353;28;20036;-51
2022/05/02 10:42:36;;;;;;;1.40;1.23;;;;;;;18.55;44.41;102016.38;5044157;28;20095;-48
2022/05/02 10:45:06;;;;;;;1.35;1.25;;;;;;;18.57;44.21;102022.50;5044277;28;20155;-49
2022/05/02 10:47:47;;;;;;;1.25;1.15;;;;;;;18.57;44.51;102019.81;5044546;28;20030;-49
2022/05/02 10:50:16;;;;;;;1.25;1.00;;;;;;;18.58;44.58;102017.97;5044245;28;20017;-51
2022/05/02 10:52:47;;;;;;;1.17;1.05;;;;;;;18.60;44.56;102022.19;5044555;28;20033;-47
2022/05/02 10:55:27;;;;;;;1.10;1.00;;;;;;;18.62;44.43;102003.22;5044962;28;20040;-49
2022/05/02 10:58:00;;;;;;;1.25;1.13;;;;;;;18.62;44.17;102000.53;5044379;28;20036;-45
2022/05/02 11:00:26;;;;;;;1.08;1.08;;;;;;;18.62;44.29;102006.78;5042638;28;20021;-47
2022/05/02 11:02:51;;;;;;;1.08;0.98;;;;;;;18.63;44.80;102000.38;5044328;28;20073;-49
2022/05/02 11:05:26;;;;;;;1.63;1.00;;;;;;;18.66;44.58;101992.03;5043971;28;20025;-47
2022/05/02 11:08:07;;;;;;;0.70;0.70;;;;;;;18.69;44.53;101993.56;5044406;28;20030;-52
2022/05/02 11:11:03;;;;;;;0.80;0.80;;;;;;;18.69;44.51;101989.09;5044677;28;20049;-50
2022/05/02 11:13:45;;;;;;;1.13;1.00;;;;;;;18.72;44.50;101991.50;5043237;28;20278;-48
2022/05/02 11:16:22;;;;;;;0.90;0.90;;;;;;;18.73;44.53;101978.88;5043173;28;20029;-49
2022/05/02 11:22:27;;;;;;;1.08;0.95;;;;;;;18.75;44.53;101971.50;5043945;28;20031;-48
2022/05/02 11:25:22;;;;;;;1.08;0.90;;;;;;;18.76;44.36;101969.66;5042866;28;20043;-51
2022/05/02 11:28:24;;;;;;;1.10;1.00;;;;;;;18.77;44.73;101985.66;5043510;28;20037;-50
2022/05/02 11:30:50;;;;;;;0.80;0.80;;;;;;;18.77;44.58;101977.59;5043215;28;20033;-50
2022/05/02 11:33:37;;;;;;;1.10;1.00;;;;;;;18.81;44.53;101986.25;5042251;28;20022;-49
2022/05/02 11:36:02;;;;;;;1.15;0.95;;;;;;;18.76;44.65;101973.19;5043990;28;20049;-51
2022/05/02 11:38:31;;;;;;;0.98;0.93;;;;;;;18.80;44.75;101981.84;5042027;28;20532;-51
2022/05/02 11:40:59;;;;;;;0.93;0.93;;;;;;;18.77;44.77;101968.66;5044091;28;20108;-49
2022/05/02 11:43:29;;;;;;;1.10;1.00;;;;;;;18.81;44.77;101980.84;5042928;28;20029;-47
2022/05/02 11:46:24;;;;;;;1.55;1.30;;;;;;;18.83;44.69;101976.19;5043795;28;20060;-51
2022/05/02 11:49:20;;;;;;;1.27;1.08;;;;;;;18.83;44.89;101977.03;5043256;28;20048;-50
2022/05/02 11:51:53;;;;;;;0.95;0.93;;;;;;;18.83;44.95;101974.34;5042714;28;20037;-47
2022/05/02 11:54:27;;;;;;;1.25;1.00;;;;;;;18.87;44.91;101966.84;5042870;28;20036;-48
2022/05/02 11:57:09;;;;;;;1.02;0.93;;;;;;;18.88;45.11;101972.06;5043819;28;20032;-48
2022/05/02 11:59:54;;;;;;;1.27;1.00;;;;;;;18.91;44.86;101969.09;5042847;28;20043;-51
2022/05/02 12:02:41;;;;;;;1.05;0.95;;;;;;;18.93;44.90;101968.94;5043647;28;20033;-49
2022/05/02 12:05:20;;;;;;;0.90;0.90;;;;;;;18.95;44.86;101958.88;5043106;28;20037;-47
2022/05/02 12:08:10;;;;;;;1.00;1.00;;;;;;;18.96;44.50;101956.03;5043395;28;20033;-50
2022/05/02 12:10:37;;;;;;;1.00;0.90;;;;;;;18.99;44.81;101963.00;5023797;28;20069;-47
2022/05/02 12:13:10;;;;;;;1.10;1.00;;;;;;;19.02;44.65;101967.22;5023379;28;20053;-47
2022/05/02 12:15:58;;;;;;;0.70;0.70;;;;;;;19.03;44.82;101958.13;5056732;28;20017;-47
2022/05/02 12:18:37;;;;;;;0.90;0.90;;;;;;;19.05;44.53;101953.47;5062859;28;20029;-47
2022/05/02 12:21:04;;;;;;;;;;;;;;;19.01;44.73;101955.59;5056041;28;20029;-48
2022/05/02 12:23:33;;;;;;;1.30;1.20;;;;;;;19.02;44.96;101956.44;5041754;28;19924;-47